createdAt,value
2019-04-29T00:01:51.842Z,42.88
2019-04-29T00:04:18.938Z,42.94
2019-04-29T00:06:46.206Z,43.00
2019-04-29T00:09:15.320Z,43.07
2019-04-29T00:11:42.514Z,43.11
2019-04-29T00:14:09.784Z,43.18
2019-04-29T00:16:43.074Z,43.26
2019-04-29T00:19:41.693Z,43.34
2019-04-29T00:22:08.858Z,43.45
2019-04-29T00:24:35.938Z,43.45
2019-04-29T00:27:03.406Z,43.55
2019-04-29T00:29:30.572Z,43.65
2019-04-29T00:31:57.641Z,43.74
2019-04-29T00:34:24.719Z,43.78
2019-04-29T00:37:10.710Z,43.85
2019-04-29T00:39:54.366Z,43.93
2019-04-29T00:42:42.342Z,43.88
2019-04-29T00:45:09.566Z,43.97
2019-04-29T00:47:36.582Z,43.97
2019-04-29T00:50:03.799Z,44.08
2019-04-29T00:52:30.872Z,44.24
2019-04-29T00:55:04.034Z,44.38
2019-04-29T00:57:31.098Z,44.51
2019-04-29T00:59:58.173Z,44.61
2019-04-29T01:02:25.245Z,44.82
2019-04-29T01:04:52.612Z,45.02
2019-04-29T01:07:19.710Z,45.09
2019-04-29T01:09:46.781Z,45.13
2019-04-29T01:12:13.852Z,45.19
2019-04-29T01:14:42.139Z,45.19
2019-04-29T01:17:09.196Z,45.28
2019-04-29T01:19:36.291Z,45.39
2019-04-29T01:22:03.461Z,45.46
2019-04-29T01:24:30.553Z,45.55
2019-04-29T01:27:35.479Z,45.68
2019-04-29T01:30:03.571Z,45.82
2019-04-29T01:32:30.743Z,45.83
2019-04-29T01:34:57.824Z,46.09
2019-04-29T01:37:35.496Z,46.28
2019-04-29T01:40:37.685Z,46.37
2019-04-29T01:43:04.761Z,46.51
2019-04-29T01:45:31.830Z,46.56
2019-04-29T01:47:58.914Z,46.73
2019-04-29T01:50:25.972Z,46.83
2019-04-29T01:52:53.044Z,46.90
2019-04-29T01:55:20.104Z,46.91
2019-04-29T01:57:47.161Z,46.88
2019-04-29T02:00:14.837Z,46.86
2019-04-29T02:02:41.916Z,46.90
2019-04-29T02:05:08.993Z,46.97
2019-04-29T02:07:36.047Z,46.99
2019-04-29T02:10:14.003Z,47.03
2019-04-29T02:12:41.091Z,47.07
2019-04-29T02:15:08.330Z,47.13
2019-04-29T02:17:35.395Z,47.24
2019-04-29T02:20:02.602Z,47.35
2019-04-29T02:22:41.323Z,47.42
2019-04-29T02:25:22.018Z,47.47
2019-04-29T02:27:49.090Z,47.55
2019-04-29T02:30:40.383Z,47.61
2019-04-29T02:33:07.464Z,47.72
2019-04-29T02:35:34.532Z,47.69
2019-04-29T02:38:02.611Z,47.82
2019-04-29T02:40:36.744Z,48.05
2019-04-29T02:43:12.296Z,48.17
2019-04-29T02:45:39.360Z,48.31
2019-04-29T02:48:06.418Z,48.41
2019-04-29T02:50:33.476Z,48.52
2019-04-29T02:53:00.556Z,48.67
2019-04-29T02:55:35.427Z,48.72
2019-04-29T02:58:23.573Z,48.88
2019-04-29T03:01:08.584Z,48.94
2019-04-29T03:03:52.317Z,48.97
2019-04-29T03:06:19.382Z,49.02
2019-04-29T03:08:46.448Z,49.08
2019-04-29T03:11:13.536Z,49.21
2019-04-29T03:13:40.595Z,49.43
2019-04-29T03:16:07.998Z,49.60
2019-04-29T03:18:37.025Z,49.76
2019-04-29T03:21:11.056Z,49.91
2019-04-29T03:23:38.111Z,49.90
2019-04-29T03:26:05.200Z,49.92
2019-04-29T03:28:32.285Z,50.04
2019-04-29T03:30:59.366Z,50.12
2019-04-29T03:33:26.430Z,50.24
2019-04-29T03:35:53.524Z,50.36
2019-04-29T03:38:20.593Z,50.54
2019-04-29T03:40:47.754Z,50.61
2019-04-29T03:43:14.816Z,50.79
2019-04-29T03:45:41.891Z,51.00
2019-04-29T03:48:08.952Z,51.06
2019-04-29T03:50:36.010Z,51.12
2019-04-29T03:53:03.097Z,51.33
2019-04-29T03:55:40.052Z,51.41
2019-04-29T03:57:59.116Z,51.52
2019-04-29T04:00:26.178Z,51.73
2019-04-29T04:03:11.406Z,52.01
2019-04-29T04:06:01.056Z,52.12
2019-04-29T04:08:36.308Z,52.19
2019-04-29T04:11:03.376Z,52.23
2019-04-29T04:13:30.445Z,52.34
2019-04-29T04:15:57.552Z,52.52
2019-04-29T04:18:28.868Z,52.65
2019-04-29T04:20:55.926Z,52.85
2019-04-29T04:23:22.999Z,53.02
2019-04-29T04:25:50.083Z,53.14
2019-04-29T04:28:17.200Z,53.22
2019-04-29T04:30:44.350Z,53.33
2019-04-29T04:33:11.443Z,53.46
2019-04-29T04:35:38.633Z,53.59
2019-04-29T04:38:05.995Z,53.65
2019-04-29T04:40:41.665Z,53.61
2019-04-29T04:43:08.692Z,53.82
2019-04-29T04:45:35.768Z,53.83
2019-04-29T04:48:02.985Z,54.04
2019-04-29T04:50:29.999Z,54.43
2019-04-29T04:52:57.070Z,54.34
2019-04-29T04:55:27.179Z,54.35
2019-04-29T04:57:54.243Z,54.33
2019-04-29T05:00:22.846Z,54.31
2019-04-29T05:02:49.903Z,54.47
2019-04-29T05:05:16.967Z,54.44
2019-04-29T05:07:44.057Z,54.54
2019-04-29T05:10:11.657Z,54.70
2019-04-29T05:12:38.758Z,54.81
2019-04-29T05:15:06.142Z,54.87
2019-04-29T05:17:33.209Z,54.92
2019-04-29T05:20:00.274Z,54.96
2019-04-29T05:22:29.459Z,55.04
2019-04-29T05:24:56.538Z,54.96
2019-04-29T05:27:23.665Z,54.96
2019-04-29T05:29:50.722Z,54.95
2019-04-29T05:32:17.790Z,54.89
2019-04-29T05:34:48.246Z,54.92
2019-04-29T05:37:26.007Z,54.94
2019-04-29T05:39:53.075Z,54.77
2019-04-29T05:42:20.127Z,54.70
2019-04-29T05:44:53.545Z,54.41
2019-04-29T05:47:34.285Z,54.21
2019-04-29T05:50:32.942Z,54.07
2019-04-29T05:53:18.354Z,53.90
2019-04-29T05:55:45.420Z,53.52
2019-04-29T05:58:12.483Z,53.22
2019-04-29T06:00:59.322Z,53.04
2019-04-29T06:03:26.381Z,52.89
2019-04-29T06:05:53.443Z,52.53
2019-04-29T06:08:20.521Z,52.21
2019-04-29T06:10:48.679Z,51.94
2019-04-29T06:13:15.749Z,51.75
2019-04-29T06:15:42.885Z,51.53
2019-04-29T06:18:09.999Z,51.36
2019-04-29T06:20:37.062Z,51.18
2019-04-29T06:23:04.158Z,50.86
2019-04-29T06:25:31.251Z,50.61
2019-04-29T06:27:58.338Z,50.50
2019-04-29T06:30:25.409Z,50.30
2019-04-29T06:32:52.494Z,49.96
2019-04-29T06:35:19.570Z,49.87
2019-04-29T06:37:46.645Z,49.80
2019-04-29T06:40:13.822Z,49.65
2019-04-29T06:42:40.899Z,49.18
2019-04-29T06:45:08.070Z,48.98
2019-04-29T06:47:35.171Z,48.50
2019-04-29T06:50:02.528Z,48.40
2019-04-29T06:52:29.611Z,48.25
2019-04-29T06:54:56.678Z,47.44
2019-04-29T06:57:23.752Z,46.90
2019-04-29T06:59:50.823Z,46.59
2019-04-29T07:02:17.886Z,46.40
2019-04-29T07:04:44.958Z,45.94
2019-04-29T07:07:12.038Z,45.97
2019-04-29T07:09:39.130Z,45.91
2019-04-29T07:12:08.174Z,45.65
2019-04-29T07:14:38.467Z,45.59
2019-04-29T07:17:05.529Z,45.22
2019-04-29T07:19:33.185Z,44.91
2019-04-29T07:22:00.315Z,44.71
2019-04-29T07:24:27.407Z,43.65
2019-04-29T07:26:57.899Z,42.82
2019-04-29T07:29:29.819Z,41.63
2019-04-29T07:31:52.489Z,42.25
2019-04-29T07:34:19.557Z,42.58
2019-04-29T07:36:46.634Z,42.64
2019-04-29T07:39:13.708Z,42.24
2019-04-29T07:41:40.766Z,42.16
2019-04-29T07:44:07.834Z,42.49
2019-04-29T07:46:56.044Z,42.77
2019-04-29T07:49:12.852Z,42.82
2019-04-29T07:51:39.610Z,42.81
2019-04-29T07:54:11.005Z,42.88
2019-04-29T07:56:37.845Z,42.85
2019-04-29T07:59:05.681Z,42.79
2019-04-29T08:01:32.748Z,42.61
2019-04-29T08:03:59.816Z,42.33
2019-04-29T08:06:27.090Z,42.03
2019-04-29T08:08:57.378Z,41.83
2019-04-29T08:11:23.328Z,41.76
2019-04-29T08:13:51.303Z,41.63
2019-04-29T08:16:18.701Z,41.63
2019-04-29T08:18:49.635Z,41.03
2019-04-29T08:21:16.006Z,40.78
2019-04-29T08:23:43.162Z,40.97
2019-04-29T08:26:10.242Z,41.13
2019-04-29T08:28:37.304Z,41.15
2019-04-29T08:31:05.570Z,41.17
2019-04-29T08:33:32.644Z,41.07
2019-04-29T08:35:59.710Z,41.15
2019-04-29T08:38:26.783Z,40.82
2019-04-29T08:40:53.859Z,40.32
2019-04-29T08:43:39.328Z,39.86
2019-04-29T08:46:09.644Z,39.92
2019-04-29T08:48:36.704Z,39.95
2019-04-29T08:51:03.771Z,39.94
2019-04-29T08:53:30.839Z,39.75
2019-04-29T08:55:57.917Z,39.31
2019-04-29T08:58:24.980Z,39.65
2019-04-29T09:00:55.767Z,39.24
2019-04-29T09:03:23.355Z,39.28
2019-04-29T09:06:03.992Z,38.88
2019-04-29T09:08:19.028Z,38.69
2019-04-29T09:10:46.182Z,38.94
2019-04-29T09:13:13.253Z,39.13
2019-04-29T09:15:40.331Z,38.39
2019-04-29T09:18:07.406Z,37.81
2019-04-29T09:20:34.476Z,38.17
2019-04-29T09:23:07.939Z,37.89
2019-04-29T09:26:02.701Z,37.92
2019-04-29T09:28:28.145Z,38.41
2019-04-29T09:30:54.886Z,38.68
2019-04-29T09:33:21.950Z,38.75
2019-04-29T09:35:49.023Z,38.53
2019-04-29T09:38:16.093Z,38.15
2019-04-29T09:40:54.423Z,37.98
2019-04-29T09:43:35.731Z,38.15
2019-04-29T09:46:09.277Z,38.56
2019-04-29T09:48:36.347Z,38.01
2019-04-29T09:51:16.722Z,37.92
2019-04-29T09:53:32.688Z,37.78
2019-04-29T09:55:59.746Z,37.59
2019-04-29T09:58:26.828Z,36.73
2019-04-29T10:01:13.886Z,36.28
2019-04-29T10:04:12.711Z,36.28
2019-04-29T10:06:40.545Z,36.54
2019-04-29T10:09:09.642Z,37.02
2019-04-29T10:11:36.801Z,37.32
2019-04-29T10:14:04.236Z,37.12
2019-04-29T10:16:56.892Z,37.16
2019-04-29T10:19:41.533Z,36.75
2019-04-29T10:22:08.659Z,35.64
2019-04-29T10:24:35.728Z,35.14
2019-04-29T10:27:03.083Z,35.19
2019-04-29T10:29:31.955Z,35.18
2019-04-29T10:32:02.367Z,34.74
2019-04-29T10:34:31.551Z,35.05
2019-04-29T10:36:57.176Z,35.21
2019-04-29T10:39:43.929Z,34.75
2019-04-29T10:42:11.708Z,34.84
2019-04-29T10:45:15.843Z,35.28
2019-04-29T10:48:02.586Z,35.24
2019-04-29T10:50:31.850Z,35.24
2019-04-29T10:53:00.016Z,34.77
2019-04-29T10:55:29.938Z,34.21
2019-04-29T10:57:56.203Z,34.58
2019-04-29T11:01:09.176Z,35.04
2019-04-29T11:03:36.245Z,34.92
2019-04-29T11:06:03.312Z,34.29
2019-04-29T11:08:47.827Z,34.28
2019-04-29T11:11:22.712Z,33.30
2019-04-29T11:13:49.913Z,33.67
2019-04-29T11:16:13.611Z,33.09
2019-04-29T11:18:40.674Z,32.75
2019-04-29T11:21:09.024Z,33.13
2019-04-29T11:24:01.509Z,33.28
2019-04-29T11:26:44.741Z,32.52
2019-04-29T11:29:11.952Z,32.08
2019-04-29T11:31:39.755Z,32.66
2019-04-29T11:34:26.378Z,32.61
2019-04-29T11:36:53.528Z,33.10
2019-04-29T11:39:20.737Z,32.34
2019-04-29T11:41:50.023Z,31.93
2019-04-29T11:44:17.080Z,32.15
2019-04-29T11:46:44.634Z,32.81
2019-04-29T11:49:14.638Z,32.98
2019-04-29T11:52:07.650Z,32.89
2019-04-29T11:54:17.463Z,32.60
2019-04-29T11:56:41.302Z,32.07
2019-04-29T11:59:27.019Z,31.85
2019-04-29T12:02:44.534Z,32.21
2019-04-29T12:05:20.671Z,32.03
2019-04-29T12:07:47.947Z,32.19
2019-04-29T12:10:15.081Z,32.23
2019-04-29T12:12:43.738Z,31.58
2019-04-29T12:15:21.405Z,31.80
2019-04-29T12:18:06.774Z,31.29
2019-04-29T12:20:45.452Z,30.02
2019-04-29T12:23:15.668Z,29.69
2019-04-29T12:25:41.512Z,30.24
2019-04-29T12:28:18.856Z,30.74
2019-04-29T12:30:41.447Z,30.24
2019-04-29T12:33:28.103Z,30.73
2019-04-29T12:36:05.192Z,30.90
2019-04-29T12:38:51.363Z,30.02
2019-04-29T12:41:48.223Z,29.74
2019-04-29T12:44:16.691Z,30.05
2019-04-29T12:46:52.343Z,30.16
2019-04-29T12:49:19.661Z,30.59
2019-04-29T12:51:46.925Z,31.00
2019-04-29T12:54:13.993Z,31.30
2019-04-29T12:56:43.181Z,31.34
2019-04-29T12:59:10.515Z,31.15
2019-04-29T13:02:03.707Z,30.35
2019-04-29T13:04:50.168Z,30.36
2019-04-29T13:07:36.792Z,30.42
2019-04-29T13:10:14.541Z,30.04
2019-04-29T13:12:44.526Z,29.60
2019-04-29T13:15:23.532Z,29.46
2019-04-29T13:18:03.571Z,29.27
2019-04-29T13:20:28.685Z,29.77
2019-04-29T13:23:01.061Z,29.71
2019-04-29T13:25:26.827Z,29.52
2019-04-29T13:28:03.729Z,29.64
2019-04-29T13:30:25.689Z,29.68
2019-04-29T13:32:55.943Z,29.14
2019-04-29T13:35:23.127Z,29.37
2019-04-29T13:37:50.152Z,29.51
2019-04-29T13:40:20.056Z,28.97
2019-04-29T13:42:49.147Z,28.30
2019-04-29T13:45:26.247Z,28.66
2019-04-29T13:48:11.589Z,28.73
2019-04-29T13:50:58.340Z,28.79
2019-04-29T13:53:25.407Z,28.58
2019-04-29T13:56:10.400Z,28.67
2019-04-29T13:58:22.166Z,28.31
2019-04-29T14:01:21.107Z,28.31
2019-04-29T14:03:49.726Z,28.31
2019-04-29T14:06:18.637Z,27.69
2019-04-29T14:08:45.779Z,27.78
2019-04-29T14:11:12.975Z,27.65
2019-04-29T14:13:43.265Z,27.72
2019-04-29T14:16:12.051Z,27.06
2019-04-29T14:18:39.371Z,27.06
2019-04-29T14:21:06.644Z,26.86
2019-04-29T14:23:33.718Z,26.00
2019-04-29T14:26:00.782Z,26.00
2019-04-29T14:28:28.956Z,25.92
2019-04-29T14:30:56.095Z,26.14
2019-04-29T14:33:27.901Z,26.53
2019-04-29T14:36:03.640Z,26.31
2019-04-29T14:38:30.854Z,26.59
2019-04-29T14:40:58.127Z,26.62
2019-04-29T14:43:43.548Z,26.58
2019-04-29T14:46:32.495Z,25.96
2019-04-29T14:49:08.601Z,25.88
2019-04-29T14:51:36.900Z,25.70
2019-04-29T14:54:05.785Z,25.67
2019-04-29T14:56:33.654Z,25.38
2019-04-29T14:59:07.109Z,25.06
2019-04-29T15:01:38.700Z,25.68
2019-04-29T15:04:18.253Z,25.93
2019-04-29T15:06:42.103Z,26.08
2019-04-29T15:09:16.895Z,25.64
2019-04-29T15:12:08.797Z,25.95
2019-04-29T15:14:49.279Z,26.63
2019-04-29T15:17:51.630Z,26.63
2019-04-29T15:20:30.116Z,26.87
2019-04-29T15:22:57.439Z,26.76
2019-04-29T15:25:24.542Z,26.77
2019-04-29T15:27:51.619Z,26.91
2019-04-29T15:30:18.936Z,27.09
2019-04-29T15:32:46.019Z,27.02
2019-04-29T15:35:13.177Z,27.28
2019-04-29T15:37:40.263Z,27.39
2019-04-29T15:40:07.744Z,27.43
2019-04-29T15:42:37.774Z,27.43
2019-04-29T15:45:04.382Z,27.58
2019-04-29T15:47:31.639Z,27.29
2019-04-29T15:50:00.825Z,27.23
2019-04-29T15:52:27.943Z,27.26
2019-04-29T15:54:55.014Z,27.21
2019-04-29T15:57:22.275Z,27.25
2019-04-29T15:59:54.357Z,27.34
2019-04-29T16:02:18.458Z,27.55
2019-04-29T16:04:52.403Z,28.02
2019-04-29T16:07:46.858Z,28.23
2019-04-29T16:10:39.082Z,28.45
2019-04-29T16:13:08.358Z,28.46
2019-04-29T16:15:35.586Z,28.15
2019-04-29T16:18:05.264Z,28.29
2019-04-29T16:20:32.901Z,28.57
2019-04-29T16:23:00.881Z,28.65
2019-04-29T16:25:29.377Z,28.79
2019-04-29T16:27:56.584Z,28.81
2019-04-29T16:30:26.046Z,28.97
2019-04-29T16:32:52.866Z,28.87
2019-04-29T16:35:23.980Z,28.61
2019-04-29T16:37:48.965Z,28.40
2019-04-29T16:40:16.355Z,28.59
2019-04-29T16:43:01.987Z,28.67
2019-04-29T16:45:54.794Z,28.73
2019-04-29T16:48:22.135Z,28.80
2019-04-29T16:50:49.202Z,28.77
2019-04-29T16:53:16.275Z,28.83
2019-04-29T16:55:45.137Z,28.99
2019-04-29T16:58:18.062Z,28.68
2019-04-29T17:00:46.530Z,28.55
2019-04-29T17:03:10.760Z,28.48
2019-04-29T17:05:39.248Z,28.61
2019-04-29T17:08:09.321Z,28.51
2019-04-29T17:11:04.230Z,28.65
2019-04-29T17:13:33.101Z,28.73
2019-04-29T17:16:00.992Z,28.86
2019-04-29T17:18:29.506Z,28.88
2019-04-29T17:21:04.523Z,28.95
2019-04-29T17:23:25.579Z,28.92
2019-04-29T17:25:52.651Z,28.94
2019-04-29T17:28:28.995Z,28.96
2019-04-29T17:31:15.161Z,29.12
2019-04-29T17:34:01.581Z,29.00
2019-04-29T17:36:30.909Z,29.03
2019-04-29T17:38:58.044Z,29.24
2019-04-29T17:41:25.171Z,29.41
2019-04-29T17:44:14.547Z,29.44
2019-04-29T17:46:46.755Z,29.41
2019-04-29T17:49:36.600Z,29.33
2019-04-29T17:52:11.247Z,29.46
2019-04-29T17:54:44.963Z,29.31
2019-04-29T17:57:30.764Z,29.30
2019-04-29T18:00:15.714Z,29.28
2019-04-29T18:03:02.648Z,29.37
2019-04-29T18:05:53.068Z,29.56
2019-04-29T18:08:16.793Z,29.84
2019-04-29T18:10:52.050Z,30.00
2019-04-29T18:13:24.073Z,30.19
2019-04-29T18:16:00.969Z,30.42
2019-04-29T18:18:28.701Z,30.53
2019-04-29T18:21:25.114Z,30.66
2019-04-29T18:24:02.012Z,30.84
2019-04-29T18:26:36.192Z,30.90
2019-04-29T18:29:06.099Z,30.98
2019-04-29T18:31:32.951Z,31.09
2019-04-29T18:34:00.163Z,31.25
2019-04-29T18:36:27.229Z,31.38
2019-04-29T18:38:55.644Z,31.48
2019-04-29T18:41:26.769Z,31.62
2019-04-29T18:43:57.825Z,31.71
2019-04-29T18:46:20.875Z,31.77
2019-04-29T18:48:48.013Z,31.85
2019-04-29T18:51:15.435Z,31.93
2019-04-29T18:53:42.602Z,32.00
2019-04-29T18:56:09.675Z,32.06
2019-04-29T18:58:36.791Z,32.17
2019-04-29T19:01:05.360Z,32.29
2019-04-29T19:03:45.769Z,32.41
2019-04-29T19:06:15.037Z,32.47
2019-04-29T19:08:42.413Z,32.60
2019-04-29T19:11:10.924Z,32.66
2019-04-29T19:13:38.251Z,32.71
2019-04-29T19:16:10.190Z,32.78
2019-04-29T19:18:36.246Z,32.83
2019-04-29T19:21:03.355Z,32.82
2019-04-29T19:23:30.634Z,32.71
2019-04-29T19:25:57.705Z,32.77
2019-04-29T19:28:30.110Z,32.59
2019-04-29T19:30:56.056Z,32.57
2019-04-29T19:33:25.224Z,32.50
2019-04-29T19:35:52.392Z,32.53
2019-04-29T19:38:19.532Z,32.52
2019-04-29T19:40:46.615Z,32.65
2019-04-29T19:43:17.367Z,32.82
2019-04-29T19:45:44.749Z,32.63
2019-04-29T19:48:11.729Z,32.83
2019-04-29T19:50:38.822Z,32.98
2019-04-29T19:53:06.339Z,33.07
2019-04-29T19:55:41.912Z,33.18
2019-04-29T19:58:03.219Z,33.26
2019-04-29T20:00:31.761Z,33.28
2019-04-29T20:02:59.780Z,33.42
2019-04-29T20:05:52.738Z,33.46
2019-04-29T20:08:41.248Z,33.59
2019-04-29T20:10:51.476Z,33.69
2019-04-29T20:13:18.776Z,33.82
2019-04-29T20:16:12.590Z,33.92
2019-04-29T20:19:02.568Z,34.01
2019-04-29T20:21:33.263Z,34.05
2019-04-29T20:24:00.819Z,34.11
2019-04-29T20:26:31.450Z,34.16
2019-04-29T20:28:59.942Z,34.18
2019-04-29T20:31:27.267Z,34.28
2019-04-29T20:33:56.035Z,34.35
2019-04-29T20:36:38.154Z,34.38
2019-04-29T20:38:52.590Z,34.44
2019-04-29T20:41:36.844Z,34.51
2019-04-29T20:43:56.411Z,34.62
2019-04-29T20:46:24.386Z,34.79
2019-04-29T20:48:55.822Z,34.90
2019-04-29T20:51:25.899Z,35.04
2019-04-29T20:53:58.403Z,35.16
2019-04-29T20:56:29.524Z,35.32
2019-04-29T20:58:55.207Z,35.44
2019-04-29T21:01:38.211Z,35.50
2019-04-29T21:04:06.614Z,35.56
2019-04-29T21:06:39.236Z,35.61
2019-04-29T21:09:06.261Z,35.70
2019-04-29T21:11:51.571Z,35.82
2019-04-29T21:14:34.013Z,36.03
2019-04-29T21:17:02.157Z,36.20
2019-04-29T21:19:28.530Z,36.32
2019-04-29T21:21:55.634Z,36.41
2019-04-29T21:24:22.894Z,36.40
2019-04-29T21:26:49.986Z,36.47
2019-04-29T21:29:19.471Z,36.54
2019-04-29T21:31:50.592Z,36.69
2019-04-29T21:34:17.427Z,36.79
2019-04-29T21:37:01.732Z,36.82
2019-04-29T21:39:48.699Z,36.86
2019-04-29T21:42:36.979Z,36.85
2019-04-29T21:45:08.710Z,36.90
2019-04-29T21:47:42.680Z,37.02
2019-04-29T21:50:05.066Z,37.16
2019-04-29T21:52:32.227Z,37.27
2019-04-29T21:54:59.298Z,37.27
2019-04-29T21:57:26.375Z,37.33
2019-04-29T21:59:53.453Z,37.45
2019-04-29T22:02:20.727Z,37.53
2019-04-29T22:04:47.810Z,37.54
2019-04-29T22:07:15.646Z,37.53
2019-04-29T22:09:47.296Z,37.50
2019-04-29T22:12:20.031Z,37.50
2019-04-29T22:14:45.131Z,37.54
2019-04-29T22:17:11.743Z,37.64
2019-04-29T22:19:38.842Z,37.70
2019-04-29T22:22:05.934Z,37.71
2019-04-29T22:24:35.958Z,37.71
2019-04-29T22:27:06.060Z,37.79
2019-04-29T22:29:37.470Z,37.81
2019-04-29T22:32:01.821Z,37.83
2019-04-29T22:34:30.817Z,37.82
2019-04-29T22:37:01.041Z,37.85
2019-04-29T22:39:29.975Z,37.91
2019-04-29T22:42:10.446Z,38.04
2019-04-29T22:44:37.526Z,38.13
2019-04-29T22:47:05.663Z,38.20
2019-04-29T22:49:33.435Z,38.38
2019-04-29T22:52:00.507Z,38.56
2019-04-29T22:54:27.572Z,38.76
2019-04-29T22:56:56.836Z,39.03
2019-04-29T22:59:25.368Z,39.28
2019-04-29T23:01:52.839Z,39.39
2019-04-29T23:04:19.898Z,39.41
2019-04-29T23:06:48.101Z,39.36
2019-04-29T23:09:15.333Z,39.33
2019-04-29T23:11:42.512Z,39.32
2019-04-29T23:14:10.110Z,39.32
2019-04-29T23:16:37.723Z,39.33
2019-04-29T23:19:05.269Z,39.36
2019-04-29T23:21:50.943Z,39.35
2019-04-29T23:24:40.695Z,39.35
2019-04-29T23:27:11.570Z,39.30
2019-04-29T23:29:43.129Z,39.24
2019-04-29T23:32:08.366Z,39.29
2019-04-29T23:34:36.372Z,39.36
2019-04-29T23:37:03.469Z,39.44
2019-04-29T23:39:30.538Z,39.38
2019-04-29T23:41:57.627Z,39.40
2019-04-29T23:44:24.799Z,39.36
2019-04-29T23:46:51.862Z,39.24
2019-04-29T23:49:18.925Z,39.19
2019-04-29T23:51:46.542Z,39.18
2019-04-29T23:54:15.280Z,39.24
2019-04-29T23:57:02.051Z,39.28
2019-04-29T23:59:30.878Z,39.35
